Time;durP1;ratioP1;P1;durP2;ratioP2;P2;SDS_P1;SDS_P2;PMS_P1;PMS_P2;Temp;Humidity;BMP_temperature;BMP_pressure;BME280_temperature;BME280_humidity;BME280_pressure;Samples;Min_cycle;Max_cycle;Signal;HPM_P1;HPM_P2
2023/02/23 00:00:36;;;;;;;23.13;13.07;;;;;;;12.69;100.00;95945.91;5097418;27;20079;-48
2023/02/23 00:03:04;;;;;;;23.65;11.90;;;;;;;12.14;100.00;95949.31;5093720;27;20146;-48
2023/02/23 00:05:37;;;;;;;22.50;12.32;;;;;;;12.70;100.00;95945.75;5092608;28;20086;-49
2023/02/23 00:08:06;;;;;;;24.42;12.32;;;;;;;12.48;100.00;95942.00;5096380;27;20472;-49
2023/02/23 00:10:59;;;;;;;21.73;12.20;;;;;;;12.13;100.00;95943.22;5096477;28;20465;-51
2023/02/23 00:13:28;;;;;;;26.70;11.88;;;;;;;12.04;100.00;95945.06;5093431;27;20091;-47
2023/02/23 00:15:57;;;;;;;18.55;10.02;;;;;;;12.05;100.00;95948.50;5098634;27;20110;-46
2023/02/23 00:18:28;;;;;;;22.80;11.82;;;;;;;11.74;100.00;95945.69;5101401;27;20106;-44
2023/02/23 00:20:57;;;;;;;19.55;10.10;;;;;;;11.71;100.00;95946.81;5090812;28;20483;-54
2023/02/23 00:23:26;;;;;;;26.20;12.48;;;;;;;11.69;100.00;95948.78;5094213;28;20496;-49
2023/02/23 00:25:55;;;;;;;21.70;11.88;;;;;;;11.86;100.00;95944.38;5098758;27;20076;-52
2023/02/23 00:28:26;;;;;;;21.73;12.52;;;;;;;11.75;100.00;95936.75;5101982;27;20088;-51
2023/02/23 00:30:54;;;;;;;23.67;12.70;;;;;;;11.62;100.00;95943.34;5105261;27;20507;-49
2023/02/23 00:33:24;;;;;;;24.73;12.65;;;;;;;11.49;100.00;95943.00;5095291;27;20463;-52
2023/02/23 00:35:54;;;;;;;22.37;11.97;;;;;;;11.91;100.00;95946.53;5103511;28;20064;-51
2023/02/23 00:38:22;;;;;;;19.70;11.27;;;;;;;11.73;100.00;95949.28;5091673;28;20092;-50
2023/02/23 00:40:50;;;;;;;22.17;12.40;;;;;;;11.91;100.00;95942.06;5097874;28;20079;-51
2023/02/23 00:43:22;;;;;;;21.10;11.27;;;;;;;11.96;100.00;95950.31;5108710;27;20079;-51
2023/02/23 00:45:55;;;;;;;23.20;13.40;;;;;;;12.03;100.00;95950.47;5096466;27;20091;-47
2023/02/23 00:48:27;;;;;;;26.13;13.05;;;;;;;11.94;100.00;95954.09;5098084;27;20532;-45
2023/02/23 00:50:58;;;;;;;24.58;12.60;;;;;;;12.24;100.00;95949.97;5098883;27;20086;-44
2023/02/23 00:53:26;;;;;;;21.65;12.90;;;;;;;12.24;100.00;95945.50;5099369;27;20079;-50
2023/02/23 00:55:56;;;;;;;24.73;13.30;;;;;;;12.43;100.00;95946.97;5094332;27;20512;-48
2023/02/23 00:58:24;;;;;;;22.38;11.45;;;;;;;11.85;100.00;95946.19;5097505;27;20091;-45
2023/02/23 01:00:53;;;;;;;20.63;12.13;;;;;;;12.03;100.00;95943.38;5095333;28;21826;-52
2023/02/23 01:03:22;;;;;;;24.90;12.38;;;;;;;11.94;100.00;95947.03;5098193;28;20091;-51
2023/02/23 01:05:51;;;;;;;24.73;13.25;;;;;;;12.19;100.00;95939.91;5095972;27;20076;-46
2023/02/23 01:08:19;;;;;;;22.90;13.40;;;;;;;12.29;100.00;95943.19;5095440;27;20063;-47
2023/02/23 01:10:52;;;;;;;25.63;12.40;;;;;;;12.38;100.00;95944.00;5106121;27;20086;-52
2023/02/23 01:13:20;;;;;;;21.50;10.23;;;;;;;11.69;100.00;95946.16;5114369;27;20083;-53
2023/02/23 01:15:50;;;;;;;21.73;11.77;;;;;;;11.73;100.00;95946.66;5099012;27;20207;-51
2023/02/23 01:18:20;;;;;;;20.17;10.52;;;;;;;11.72;100.00;95945.00;5096070;28;20084;-49
2023/02/23 01:20:49;;;;;;;20.38;10.25;;;;;;;11.65;100.00;95944.84;5093115;28;20087;-54
2023/02/23 01:23:19;;;;;;;21.02;12.45;;;;;;;11.70;100.00;95939.91;5096234;27;20091;-53
2023/02/23 01:25:48;;;;;;;20.80;10.88;;;;;;;11.63;100.00;95945.00;5098684;27;20076;-48
2023/02/23 01:28:16;;;;;;;30.10;14.77;;;;;;;11.48;100.00;95945.81;5113655;27;20460;-51
2023/02/23 01:30:44;;;;;;;24.98;12.75;;;;;;;11.71;100.00;95943.38;5106858;27;20075;-48
2023/02/23 01:33:15;;;;;;;18.15;10.43;;;;;;;11.93;100.00;95944.53;5097969;27;20071;-49
2023/02/23 01:35:43;;;;;;;22.42;11.07;;;;;;;11.73;100.00;95944.00;5102172;27;20075;-48
2023/02/23 01:38:12;;;;;;;24.98;12.52;;;;;;;11.74;100.00;95940.41;5095743;27;20080;-47
2023/02/23 01:40:43;;;;;;;21.08;11.18;;;;;;;11.82;100.00;95941.22;5095179;27;20086;-48
2023/02/23 01:43:13;;;;;;;22.73;12.35;;;;;;;11.61;100.00;95944.34;5103541;27;20087;-46
2023/02/23 01:45:42;;;;;;;24.85;12.55;;;;;;;11.67;100.00;95932.31;5101792;27;20147;-50
2023/02/23 01:48:13;;;;;;;23.10;12.82;;;;;;;11.57;100.00;95932.47;5099667;27;20079;-48
2023/02/23 01:50:48;;;;;;;20.75;11.05;;;;;;;11.52;100.00;95932.09;5099299;27;20109;-52
2023/02/23 01:53:17;;;;;;;24.10;11.98;;;;;;;11.58;100.00;95939.38;5098511;27;20555;-52
2023/02/23 01:55:48;;;;;;;20.10;10.15;;;;;;;11.76;100.00;95930.47;5092830;27;20076;-48
2023/02/23 01:58:18;;;;;;;21.40;11.73;;;;;;;11.72;100.00;95929.16;5096523;27;20082;-47
2023/02/23 02:00:49;;;;;;;27.45;14.23;;;;;;;11.48;100.00;95930.78;5094158;27;20075;-46
2023/02/23 02:03:25;;;;;;;20.50;10.57;;;;;;;11.43;100.00;95938.38;5102187;27;20077;-47
2023/02/23 02:05:55;;;;;;;27.90;14.00;;;;;;;11.67;100.00;95934.13;5105418;28;20109;-51
2023/02/23 02:08:25;;;;;;;19.15;10.48;;;;;;;11.48;100.00;95929.97;5098376;27;20071;-50
2023/02/23 02:10:56;;;;;;;22.13;12.10;;;;;;;11.91;100.00;95931.50;5094482;27;20106;-53
2023/02/23 02:13:25;;;;;;;;;;;;;;;11.96;100.00;95931.00;5094951;28;20071;-51
2023/02/23 02:16:23;;;;;;;20.88;10.98;;;;;;;11.84;100.00;95931.34;5098967;27;19955;-50
2023/02/23 02:19:04;;;;;;;26.10;13.77;;;;;;;11.49;100.00;95935.06;5096487;27;20094;-53
2023/02/23 02:21:52;;;;;;;25.73;12.85;;;;;;;12.28;100.00;95928.31;5099630;27;20128;-50
2023/02/23 02:24:39;;;;;;;24.88;12.75;;;;;;;11.92;100.00;95929.69;5096707;27;20083;-48
2023/02/23 02:27:18;;;;;;;25.70;12.27;;;;;;;11.83;100.00;95921.72;5095515;27;20082;-47
2023/02/23 02:30:22;;;;;;;24.88;11.60;;;;;;;11.83;100.00;95915.63;5096123;27;20464;-51
2023/02/23 02:33:17;;;;;;;26.70;11.80;;;;;;;11.67;100.00;95923.56;5069848;27;20087;-51
2023/02/23 02:36:18;;;;;;;25.35;12.13;;;;;;;11.85;100.00;95911.84;5094541;27;20156;-50
2023/02/23 02:38:53;;;;;;;25.17;13.25;;;;;;;11.59;100.00;95919.06;5095051;27;20109;-50
2023/02/23 02:41:31;;;;;;;25.73;13.65;;;;;;;11.78;100.00;95926.69;5099787;27;20559;-48
2023/02/23 02:44:06;;;;;;;23.40;12.40;;;;;;;11.75;100.00;95928.84;5099363;27;20067;-47
2023/02/23 02:46:37;;;;;;;26.17;14.70;;;;;;;11.70;100.00;95920.56;5092609;27;20083;-47
2023/02/23 02:49:10;;;;;;;24.38;13.68;;;;;;;11.87;100.00;95920.44;5095585;27;20076;-47
2023/02/23 02:51:43;;;;;;;24.45;13.50;;;;;;;12.14;100.00;95917.59;5100831;27;20083;-47
2023/02/23 02:54:20;;;;;;;31.55;14.38;;;;;;;11.80;100.00;95923.88;5094499;27;20646;-49
2023/02/23 02:56:49;;;;;;;26.20;14.40;;;;;;;11.65;100.00;95927.16;5089953;27;20067;-49
2023/02/23 04:18:12;;;;;;;30.40;15.25;;;;;;;13.60;100.00;95957.75;5096437;27;20102;-51
2023/02/23 04:20:40;;;;;;;29.08;15.20;;;;;;;13.52;100.00;95956.81;5095352;28;20494;-49
2023/02/23 04:23:09;;;;;;;28.88;16.35;;;;;;;13.37;100.00;95955.88;5093372;28;20087;-46
2023/02/23 04:25:37;;;;;;;33.63;18.08;;;;;;;13.34;100.00;95958.88;5100573;28;20086;-50
2023/02/23 04:28:05;;;;;;;31.23;16.67;;;;;;;13.34;100.00;95961.53;5097602;27;20083;-49
2023/02/23 04:30:34;;;;;;;31.30;16.63;;;;;;;13.56;100.00;95951.97;5099160;27;20444;-50
2023/02/23 04:33:02;;;;;;;32.85;16.63;;;;;;;13.54;100.00;95957.44;5097551;28;20075;-53
2023/02/23 04:35:32;;;;;;;32.47;16.30;;;;;;;12.66;100.00;95959.47;5093491;28;20088;-47
2023/02/23 04:38:00;;;;;;;29.45;16.40;;;;;;;12.91;100.00;95960.22;5096196;28;20643;-52
2023/02/23 04:40:29;;;;;;;31.70;16.83;;;;;;;12.18;100.00;95962.06;5097502;28;20083;-49
2023/02/23 04:42:58;;;;;;;34.60;17.17;;;;;;;12.39;100.00;95952.75;5092188;28;20743;-47
2023/02/23 04:45:27;;;;;;;29.02;16.48;;;;;;;12.63;100.00;95951.84;5093018;28;20075;-49
2023/02/23 04:47:55;;;;;;;29.52;16.45;;;;;;;12.72;100.00;95956.13;5091361;28;20076;-53
2023/02/23 04:50:23;;;;;;;28.20;16.48;;;;;;;12.01;100.00;95952.47;5093781;28;20063;-43
2023/02/23 04:52:53;;;;;;;30.35;16.88;;;;;;;12.61;100.00;95956.50;5094901;28;20610;-49
2023/02/23 04:55:23;;;;;;;32.03;16.37;;;;;;;12.32;100.00;95950.78;5098748;28;20071;-49
2023/02/23 04:57:51;;;;;;;30.35;17.30;;;;;;;12.49;100.00;95950.75;5090768;28;20475;-52
2023/02/23 05:00:20;;;;;;;31.60;17.08;;;;;;;12.49;100.00;95948.94;5105587;28;20060;-47
2023/02/23 05:02:48;;;;;;;34.00;17.45;;;;;;;12.48;100.00;95949.91;5110905;27;20086;-49
2023/02/23 05:05:18;;;;;;;33.97;18.13;;;;;;;13.09;100.00;95950.22;5104036;28;20078;-50
2023/02/23 05:07:46;;;;;;;30.95;18.02;;;;;;;13.17;100.00;95960.75;5100216;28;20082;-47
2023/02/23 05:10:16;;;;;;;34.65;18.65;;;;;;;13.37;100.00;95961.19;5102485;28;20066;-53
2023/02/23 05:12:45;;;;;;;32.90;17.92;;;;;;;13.16;100.00;95959.13;5096904;28;20098;-49
2023/02/23 05:15:14;;;;;;;31.50;16.90;;;;;;;13.03;100.00;95957.00;5108658;28;20071;-46
2023/02/23 05:17:42;;;;;;;31.02;16.40;;;;;;;13.27;100.00;95963.22;5096831;27;20066;-47
2023/02/23 05:20:12;;;;;;;27.23;15.18;;;;;;;13.25;100.00;95952.00;5102777;28;20078;-48
2023/02/23 05:22:41;;;;;;;30.05;15.63;;;;;;;13.30;100.00;95954.94;5109858;28;20081;-47
2023/02/23 05:25:10;;;;;;;30.35;15.52;;;;;;;13.30;100.00;95958.41;5109577;27;20063;-45
2023/02/23 05:27:40;;;;;;;30.88;16.50;;;;;;;13.30;100.00;95960.22;5108365;27;20091;-49
2023/02/23 05:30:09;;;;;;;29.10;16.95;;;;;;;13.41;100.00;95957.19;5117005;27;20094;-52
2023/02/23 05:32:38;;;;;;;32.25;16.67;;;;;;;13.46;100.00;95964.63;5115636;27;20090;-48
2023/02/23 05:35:07;;;;;;;31.83;17.00;;;;;;;13.52;100.00;95970.06;5112065;27;20090;-50
2023/02/23 05:37:36;;;;;;;30.90;16.42;;;;;;;13.62;100.00;95971.63;5114475;27;20086;-48
2023/02/23 05:40:05;;;;;;;27.88;15.30;;;;;;;13.65;100.00;95969.44;5108621;27;20071;-47
2023/02/23 05:42:33;;;;;;;30.50;15.48;;;;;;;13.70;100.00;95972.41;5113227;27;20083;-50
2023/02/23 05:45:03;;;;;;;30.83;16.75;;;;;;;13.73;100.00;95965.94;5108080;27;20083;-51
2023/02/23 05:47:34;;;;;;;29.70;16.17;;;;;;;13.76;100.00;95971.72;5121810;27;20083;-54
2023/02/23 05:50:02;;;;;;;32.45;16.52;;;;;;;13.79;100.00;95965.22;5109343;28;20083;-51
2023/02/23 05:52:30;;;;;;;33.50;18.45;;;;;;;13.76;100.00;95966.41;5107333;27;20079;-47
2023/02/23 05:54:59;;;;;;;30.17;17.38;;;;;;;13.56;100.00;95972.31;5098705;27;20109;-46
2023/02/23 05:57:27;;;;;;;30.35;17.48;;;;;;;13.25;100.00;95970.53;5099691;27;20083;-53
2023/02/23 05:59:55;;;;;;;32.17;18.02;;;;;;;13.47;100.00;95971.56;5099967;27;20079;-50
2023/02/23 06:02:25;;;;;;;29.90;17.33;;;;;;;13.54;100.00;95973.34;5100350;27;20480;-51
2023/02/23 06:04:54;;;;;;;33.28;17.67;;;;;;;13.73;100.00;95974.72;5096396;27;20153;-49
2023/02/23 06:07:22;;;;;;;33.88;18.15;;;;;;;13.49;100.00;95981.00;5099928;28;20079;-50
2023/02/23 06:09:51;;;;;;;32.63;17.10;;;;;;;13.15;100.00;95972.53;5103398;27;20076;-47
2023/02/23 06:12:19;;;;;;;33.70;17.52;;;;;;;13.48;100.00;95981.16;5097924;27;20075;-49
2023/02/23 06:14:49;;;;;;;37.05;17.75;;;;;;;13.62;100.00;95982.22;5119991;27;20071;-45
2023/02/23 06:17:17;;;;;;;31.25;17.30;;;;;;;13.69;100.00;95978.69;5099237;28;20083;-47
2023/02/23 06:19:47;;;;;;;32.03;15.95;;;;;;;13.47;100.00;95977.69;5099087;27;20078;-50
2023/02/23 06:22:17;;;;;;;28.38;15.32;;;;;;;13.62;100.00;95985.69;5101065;27;20082;-49
2023/02/23 06:24:45;;;;;;;30.92;16.35;;;;;;;13.36;100.00;95988.69;5099803;27;21028;-46
2023/02/23 06:27:13;;;;;;;36.03;18.48;;;;;;;13.35;100.00;95989.69;5104691;27;20087;-45
2023/02/23 06:29:42;;;;;;;30.08;16.60;;;;;;;13.46;100.00;95986.63;5098929;27;20076;-52
2023/02/23 06:32:10;;;;;;;31.80;17.00;;;;;;;13.36;100.00;95985.22;5094250;27;20083;-44
2023/02/23 06:34:39;;;;;;;30.70;17.15;;;;;;;13.73;100.00;95987.16;5094164;27;20087;-53
2023/02/23 06:37:09;;;;;;;35.97;17.90;;;;;;;13.75;100.00;95985.13;5094793;27;20079;-46
2023/02/23 06:39:37;;;;;;;30.30;16.48;;;;;;;13.47;100.00;95990.94;5100448;27;20082;-47
2023/02/23 06:42:05;;;;;;;32.88;17.60;;;;;;;13.80;100.00;95990.75;5095427;27;20491;-47
2023/02/23 06:44:34;;;;;;;34.88;17.17;;;;;;;13.71;100.00;95994.44;5103167;27;20071;-52
2023/02/23 06:47:05;;;;;;;28.17;15.75;;;;;;;13.76;100.00;95998.22;5101701;27;20079;-48
2023/02/23 06:49:33;;;;;;;;;;;;;;;13.89;100.00;96005.56;5100160;27;20080;-50
2023/02/23 06:52:01;;;;;;;30.55;15.50;;;;;;;13.85;100.00;96004.28;5106477;27;19981;-50
2023/02/23 06:54:33;;;;;;;30.33;16.27;;;;;;;13.45;100.00;96006.16;5105384;27;20110;-50
2023/02/23 06:57:01;;;;;;;29.45;16.80;;;;;;;13.33;100.00;96004.91;5098045;27;20094;-52
2023/02/23 06:59:30;;;;;;;27.52;15.75;;;;;;;13.61;100.00;96004.44;5101483;27;20530;-50
2023/02/23 07:01:58;;;;;;;27.90;15.63;;;;;;;13.44;100.00;96006.34;5101216;27;20075;-49
2023/02/23 07:04:26;;;;;;;29.95;16.38;;;;;;;13.58;100.00;96008.25;5102522;27;20087;-46
2023/02/23 07:06:55;;;;;;;28.42;16.20;;;;;;;13.32;100.00;96013.84;5094362;27;20085;-51
2023/02/23 07:09:23;;;;;;;28.13;16.45;;;;;;;14.02;100.00;96008.47;5102725;27;20462;-47
2023/02/23 07:11:52;;;;;;;29.05;15.98;;;;;;;13.83;100.00;96016.88;5098561;27;20079;-49
2023/02/23 07:14:21;;;;;;;30.70;16.58;;;;;;;13.77;100.00;96014.94;5101007;28;20079;-49
2023/02/23 07:16:54;;;;;;;31.15;17.42;;;;;;;13.97;100.00;96012.63;5102630;27;20074;-47
2023/02/23 07:19:23;;;;;;;26.08;15.10;;;;;;;14.38;100.00;96005.22;5102166;27;20071;-52
2023/02/23 07:21:52;;;;;;;27.52;15.93;;;;;;;14.28;100.00;96006.44;5103132;27;20095;-51
2023/02/23 07:24:20;;;;;;;34.50;16.90;;;;;;;13.48;100.00;96016.41;5097545;28;20083;-45
2023/02/23 07:26:49;;;;;;;27.15;16.48;;;;;;;14.01;100.00;96017.41;5103601;27;20083;-45
2023/02/23 07:29:18;;;;;;;29.27;15.50;;;;;;;14.41;100.00;96004.81;5093194;27;20064;-50
2023/02/23 07:31:48;;;;;;;28.63;16.47;;;;;;;14.43;100.00;96008.13;5096088;27;20095;-47
2023/02/23 07:34:17;;;;;;;28.08;15.90;;;;;;;15.00;100.00;96008.59;5098535;28;20083;-53
2023/02/23 07:36:45;;;;;;;30.58;16.65;;;;;;;14.99;100.00;96005.09;5109342;27;20532;-52
2023/02/23 07:39:13;;;;;;;29.02;16.00;;;;;;;14.85;100.00;96006.75;5098441;27;20453;-51
2023/02/23 07:41:42;;;;;;;30.52;16.55;;;;;;;14.79;100.00;96014.63;5102044;27;20091;-50
2023/02/23 07:44:10;;;;;;;30.70;16.85;;;;;;;15.08;100.00;96009.31;5105530;27;20557;-47
2023/02/23 07:46:40;;;;;;;32.72;16.23;;;;;;;14.83;100.00;96014.09;5114176;27;20080;-48
2023/02/23 07:49:08;;;;;;;30.83;16.50;;;;;;;15.41;100.00;96003.59;5090752;27;20082;-48
2023/02/23 07:51:37;;;;;;;32.60;16.52;;;;;;;15.75;100.00;96012.81;5094662;28;20087;-49
2023/02/23 07:54:05;;;;;;;30.48;16.50;;;;;;;15.52;100.00;96021.75;5092798;27;20083;-51
2023/02/23 07:56:34;;;;;;;28.77;15.90;;;;;;;15.30;100.00;96015.53;5096159;27;20090;-47
2023/02/23 07:59:03;;;;;;;28.02;15.85;;;;;;;15.30;100.00;96020.84;5102688;27;20075;-52
2023/02/23 08:01:31;;;;;;;27.80;15.15;;;;;;;15.47;100.00;96020.66;5101621;27;20181;-49
2023/02/23 08:04:00;;;;;;;28.67;15.38;;;;;;;15.07;100.00;96023.63;5102169;27;20082;-50
2023/02/23 08:06:30;;;;;;;30.17;16.40;;;;;;;15.61;100.00;96017.94;5095168;27;20106;-51
2023/02/23 08:08:59;;;;;;;29.73;14.80;;;;;;;15.38;100.00;96020.75;5095985;27;20499;-45
2023/02/23 08:11:28;;;;;;;27.02;14.13;;;;;;;15.93;100.00;96023.03;5103112;27;20090;-51
2023/02/23 08:13:58;;;;;;;30.13;15.63;;;;;;;16.16;100.00;96021.00;5094807;28;20075;-50
2023/02/23 08:16:27;;;;;;;;;;;;;;;16.02;100.00;96013.94;5103307;27;20083;-49
2023/02/23 08:18:57;;;;;;;23.30;13.13;;;;;;;15.86;100.00;96022.94;5096044;28;19958;-50
2023/02/23 08:21:28;;;;;;;27.88;14.52;;;;;;;16.10;100.00;96017.28;5094762;27;20083;-49
2023/02/23 08:23:56;;;;;;;25.58;14.68;;;;;;;15.96;100.00;96020.81;5093123;28;20083;-50
2023/02/23 08:26:25;;;;;;;24.80;13.52;;;;;;;15.22;100.00;96028.91;5097935;27;20177;-48
2023/02/23 08:28:54;;;;;;;28.27;14.70;;;;;;;15.52;100.00;96027.06;5101037;28;20776;-48
2023/02/23 08:31:22;;;;;;;25.65;14.52;;;;;;;15.85;100.00;96023.97;5095631;28;20075;-48
2023/02/23 08:33:52;;;;;;;27.10;14.82;;;;;;;16.29;100.00;96026.47;5097345;27;20105;-50
2023/02/23 08:36:21;;;;;;;24.17;14.02;;;;;;;15.28;100.00;96033.50;5106239;27;20075;-49
2023/02/23 08:38:50;;;;;;;30.95;13.50;;;;;;;15.81;100.00;96026.19;5096465;28;20459;-49
2023/02/23 08:41:19;;;;;;;25.30;14.00;;;;;;;15.79;100.00;96024.72;5097201;28;20084;-46
2023/02/23 08:43:48;;;;;;;26.67;13.70;;;;;;;15.79;100.00;96027.38;5099232;28;20628;-49
2023/02/23 08:46:19;;;;;;;27.75;14.25;;;;;;;15.57;100.00;96029.97;5094805;28;20080;-51
2023/02/23 08:48:47;;;;;;;27.90;14.13;;;;;;;15.91;100.00;96025.88;5100433;28;20076;-46
2023/02/23 08:51:16;;;;;;;22.40;13.38;;;;;;;15.13;100.00;96032.66;5096717;28;20531;-47
2023/02/23 08:53:45;;;;;;;26.13;13.35;;;;;;;15.26;100.00;96024.88;5111450;28;20091;-50
2023/02/23 08:56:15;;;;;;;25.70;14.50;;;;;;;14.98;100.00;96021.22;5094017;28;20091;-50
2023/02/23 08:58:43;;;;;;;23.77;13.45;;;;;;;15.61;100.00;96023.25;5098137;28;20090;-51
2023/02/23 09:01:16;;;;;;;28.67;13.70;;;;;;;15.43;100.00;96028.97;5090343;28;20094;-51
2023/02/23 09:03:45;;;;;;;25.75;13.70;;;;;;;15.55;100.00;96033.81;5102734;27;20477;-50
2023/02/23 09:06:16;;;;;;;29.08;12.68;;;;;;;15.72;100.00;96029.13;5103525;27;20102;-50
2023/02/23 09:08:44;;;;;;;25.92;14.27;;;;;;;15.68;100.00;96023.38;5104849;27;20082;-51
2023/02/23 09:11:13;;;;;;;28.00;15.23;;;;;;;16.12;100.00;96022.41;5100904;27;20095;-51
2023/02/23 09:13:43;;;;;;;24.00;13.35;;;;;;;15.89;100.00;96020.75;5101318;27;20091;-55
2023/02/23 09:16:11;;;;;;;24.48;12.48;;;;;;;16.03;100.00;96028.84;5107697;27;20239;-49
2023/02/23 09:18:40;;;;;;;27.75;14.00;;;;;;;16.09;100.00;96028.09;5100113;27;20091;-53
2023/02/23 09:21:17;;;;;;;21.55;12.25;;;;;;;16.60;100.00;96020.78;5101170;27;20079;-49
2023/02/23 09:23:48;;;;;;;27.40;15.23;;;;;;;16.23;100.00;96019.25;5102347;27;20531;-48
2023/02/23 09:26:17;;;;;;;25.60;13.15;;;;;;;16.28;100.00;96027.50;5098967;27;20083;-50
2023/02/23 09:28:47;;;;;;;28.20;11.60;;;;;;;15.80;100.00;96032.53;5099152;27;20764;-50
2023/02/23 09:31:17;;;;;;;26.70;14.53;;;;;;;16.24;100.00;96031.56;5093563;27;20102;-45
2023/02/23 09:33:46;;;;;;;27.17;14.45;;;;;;;16.38;100.00;96038.63;5104023;27;20514;-47
2023/02/23 09:36:16;;;;;;;25.25;13.52;;;;;;;17.06;100.00;96028.31;5108539;27;20458;-50
2023/02/23 09:38:44;;;;;;;23.13;13.20;;;;;;;16.74;100.00;96028.88;5099404;28;20063;-48
2023/02/23 09:41:41;;;;;;;24.38;13.77;;;;;;;16.85;100.00;96031.84;5094698;27;20513;-54
2023/02/23 09:44:16;;;;;;;20.02;9.80;;;;;;;16.95;100.00;96030.69;5102996;27;20075;-51
2023/02/23 09:46:52;;;;;;;18.50;11.50;;;;;;;16.75;100.00;96031.38;5107401;27;20071;-52
2023/02/23 09:49:23;;;;;;;21.25;10.30;;;;;;;17.36;100.00;96038.72;5097846;27;20525;-47
2023/02/23 09:51:56;;;;;;;21.65;12.55;;;;;;;16.52;100.00;96036.91;5106793;27;20081;-50
2023/02/23 09:54:28;;;;;;;20.13;12.20;;;;;;;16.95;100.00;96039.50;5099159;27;20439;-50
2023/02/23 09:56:57;;;;;;;19.15;11.27;;;;;;;16.66;100.00;96039.69;5096428;27;20106;-47
2023/02/23 09:59:27;;;;;;;23.40;11.30;;;;;;;16.85;100.00;96044.34;5102995;27;20081;-47
2023/02/23 10:02:00;;;;;;;17.98;11.10;;;;;;;17.23;100.00;96042.13;5101304;28;20059;-49
2023/02/23 10:04:31;;;;;;;20.40;12.30;;;;;;;17.26;100.00;96039.06;5106179;27;20464;-48
2023/02/23 10:07:01;;;;;;;;;;;;;;;17.31;100.00;96044.66;5109531;27;20066;-49
2023/02/23 10:09:42;;;;;;;21.95;11.73;;;;;;;17.25;100.00;96042.78;5096249;28;19959;-48
2023/02/23 10:12:11;;;;;;;;;;;;;;;17.20;100.00;96042.53;5098563;27;20079;-50
2023/02/23 10:14:59;;;;;;;17.52;10.73;;;;;;;18.15;100.00;96035.53;5104072;27;19947;-46
2023/02/23 10:17:36;;;;;;;18.60;10.32;;;;;;;17.70;100.00;96032.53;5101711;27;20075;-46
2023/02/23 10:20:14;;;;;;;20.98;12.60;;;;;;;17.53;100.00;96041.88;5107710;27;20082;-49
2023/02/23 10:22:43;;;;;;;20.25;10.50;;;;;;;17.94;100.00;96041.03;5097048;27;20068;-48
2023/02/23 10:25:13;;;;;;;17.48;11.32;;;;;;;18.35;100.00;96040.94;5099089;27;20326;-48
2023/02/23 10:27:44;;;;;;;17.90;11.25;;;;;;;18.25;100.00;96037.84;5098820;27;20080;-51
2023/02/23 10:30:22;;;;;;;17.15;11.18;;;;;;;17.93;100.00;96044.75;5094303;27;20075;-49
2023/02/23 10:32:56;;;;;;;19.67;10.32;;;;;;;18.16;100.00;96036.38;5104279;27;20528;-49
2023/02/23 10:35:26;;;;;;;19.90;12.55;;;;;;;17.98;100.00;96043.09;5094647;28;20087;-50
2023/02/23 10:37:54;;;;;;;19.25;11.48;;;;;;;18.36;100.00;96033.72;5100765;27;20082;-47
2023/02/23 10:40:26;;;;;;;15.63;8.55;;;;;;;17.87;100.00;96037.53;5099577;28;20090;-46
2023/02/23 10:42:56;;;;;;;16.55;9.80;;;;;;;17.64;100.00;96040.50;5106908;27;20078;-50
2023/02/23 10:45:27;;;;;;;15.95;10.13;;;;;;;18.07;100.00;96037.59;5102547;27;20098;-53
2023/02/23 10:47:58;;;;;;;17.02;8.82;;;;;;;17.92;100.00;96035.91;5099725;27;20095;-51
2023/02/23 10:50:27;;;;;;;16.70;10.48;;;;;;;17.69;100.00;96036.22;5094725;27;20554;-50
2023/02/23 10:52:59;;;;;;;18.35;10.73;;;;;;;17.70;100.00;96039.69;5101485;27;20106;-50
2023/02/23 10:55:29;;;;;;;18.13;9.70;;;;;;;17.65;100.00;96036.78;5093666;27;20083;-47
2023/02/23 10:58:08;;;;;;;16.67;9.68;;;;;;;17.69;100.00;96036.22;5102839;27;20079;-48
2023/02/23 11:00:40;;;;;;;16.55;10.48;;;;;;;17.75;100.00;96034.56;5095690;27;20090;-53
2023/02/23 11:03:18;;;;;;;15.30;9.85;;;;;;;17.66;100.00;96036.63;5097291;27;20079;-48
2023/02/23 11:05:51;;;;;;;16.13;9.40;;;;;;;18.31;100.00;96031.69;5095513;28;20092;-51
2023/02/23 11:08:23;;;;;;;15.55;9.57;;;;;;;17.54;100.00;96035.53;5096940;27;20472;-53
2023/02/23 11:11:07;;;;;;;16.30;9.10;;;;;;;17.56;100.00;96033.50;5102400;28;20102;-54
2023/02/23 11:13:38;;;;;;;14.20;8.27;;;;;;;17.44;100.00;96030.56;5091586;28;20107;-53
2023/02/23 11:16:09;;;;;;;;;;;;;;;16.93;100.00;96024.72;5095916;27;20087;-48
2023/02/23 11:18:39;;;;;;;16.05;8.38;;;;;;;17.58;100.00;96023.44;5101649;27;19955;-48
2023/02/23 11:21:18;;;;;;;17.45;9.65;;;;;;;17.58;100.00;96022.63;5096224;27;20550;-51
2023/02/23 11:23:50;;;;;;;13.85;8.10;;;;;;;17.49;100.00;96019.31;5105067;27;20079;-49
2023/02/23 11:26:27;;;;;;;16.90;9.05;;;;;;;17.17;100.00;96023.44;5102216;27;20071;-52
2023/02/23 11:28:58;;;;;;;14.57;8.93;;;;;;;17.28;100.00;96018.41;5102279;27;20523;-51
2023/02/23 11:31:33;;;;;;;16.05;9.35;;;;;;;17.39;100.00;96017.00;5102296;27;20059;-50
2023/02/23 11:34:04;;;;;;;14.32;7.75;;;;;;;17.46;100.00;96017.03;5095442;27;20072;-52
2023/02/23 11:36:33;;;;;;;;;;;;;;;17.21;100.00;96011.41;5095847;28;20083;-52
2023/02/23 11:39:18;;;;;;;15.38;9.07;;;;;;;16.82;100.00;96002.94;5100636;27;20374;-53
2023/02/23 11:41:46;;;;;;;16.15;8.75;;;;;;;16.78;100.00;96000.88;5097923;27;20079;-49
2023/02/23 11:44:22;;;;;;;14.35;8.48;;;;;;;17.11;100.00;96003.75;5104542;27;20078;-49
2023/02/23 11:46:52;;;;;;;14.43;8.13;;;;;;;17.37;100.00;96004.88;5104311;27;20106;-47
2023/02/23 11:49:23;;;;;;;18.05;9.57;;;;;;;17.19;100.00;95998.25;5096548;27;20133;-52
2023/02/23 11:51:53;;;;;;;12.63;7.63;;;;;;;17.20;100.00;95996.41;5101731;27;20072;-49
2023/02/23 11:54:25;;;;;;;13.50;7.60;;;;;;;17.82;100.00;95991.97;5099395;27;20094;-51
2023/02/23 11:56:56;;;;;;;14.90;8.30;;;;;;;17.83;100.00;95993.63;5091229;28;20075;-48
2023/02/23 11:59:29;;;;;;;18.50;7.55;;;;;;;17.29;100.00;95996.03;5098730;27;20544;-47
2023/02/23 12:02:05;;;;;;;15.05;8.38;;;;;;;17.39;100.00;95982.34;5103220;27;20076;-52
2023/02/23 12:04:36;;;;;;;15.02;8.57;;;;;;;17.58;100.00;95982.63;5103536;27;20082;-50
2023/02/23 12:07:26;;;;;;;15.63;7.95;;;;;;;17.57;100.00;95979.13;5101722;27;20087;-46
2023/02/23 12:09:59;;;;;;;8.27;5.13;;;;;;;17.93;100.00;95980.72;5098792;27;20082;-52
2023/02/23 12:12:28;;;;;;;12.90;6.60;;;;;;;18.07;100.00;95984.22;5090715;27;20098;-48
2023/02/23 12:15:00;;;;;;;12.85;7.22;;;;;;;18.31;100.00;95969.47;5098319;28;20059;-44
2023/02/23 12:17:35;;;;;;;15.40;8.65;;;;;;;18.27;100.00;95971.69;5097721;27;20064;-54
2023/02/23 12:20:09;;;;;;;13.77;8.20;;;;;;;18.45;100.00;95971.94;5095852;27;20095;-45
2023/02/23 12:22:40;;;;;;;11.85;6.13;;;;;;;18.26;100.00;95962.06;5098030;28;20158;-47
2023/02/23 12:25:15;;;;;;;12.70;7.50;;;;;;;18.09;100.00;95972.31;5099944;28;20112;-54
2023/02/23 12:27:49;;;;;;;12.30;6.75;;;;;;;18.41;100.00;95969.84;5095778;27;20086;-46
2023/02/23 12:30:21;;;;;;;11.60;6.90;;;;;;;18.53;100.00;95965.56;5099286;28;20086;-51
2023/02/23 12:32:56;;;;;;;14.30;7.40;;;;;;;18.66;91.96;95960.19;5100300;27;20070;-48
2023/02/23 12:35:29;;;;;;;14.50;7.57;;;;;;;18.67;89.78;95963.69;5093374;28;20680;-51
2023/02/23 12:38:01;;;;;;;10.98;6.72;;;;;;;18.73;91.90;95958.38;5095240;27;20072;-48
2023/02/23 12:40:32;;;;;;;12.77;7.50;;;;;;;19.06;90.53;95962.00;5093134;28;20438;-54
2023/02/23 12:43:05;;;;;;;11.02;7.63;;;;;;;19.00;90.27;95947.63;5091913;28;20098;-49
2023/02/23 12:45:39;;;;;;;12.15;6.45;;;;;;;19.11;80.80;95955.00;5105517;27;20083;-51
2023/02/23 12:48:15;;;;;;;11.07;7.30;;;;;;;19.32;79.95;95945.06;5097957;28;20087;-49